createdAt,value
2023-05-10T00:00:56.890Z,18.40
2023-05-10T00:03:24.054Z,18.60
2023-05-10T00:05:51.207Z,18.60
2023-05-10T00:08:18.441Z,18.60
2023-05-10T00:10:45.574Z,18.60
2023-05-10T00:13:12.810Z,18.60
2023-05-10T00:15:39.929Z,18.60
2023-05-10T00:18:07.088Z,18.60
2023-05-10T00:20:34.210Z,18.60
2023-05-10T00:23:01.440Z,18.60
2023-05-10T00:25:28.519Z,18.50
2023-05-10T00:27:58.006Z,18.60
2023-05-10T00:30:25.380Z,18.60
2023-05-10T00:32:52.769Z,18.50
2023-05-10T00:35:19.976Z,18.90
2023-05-10T00:37:47.134Z,18.50
2023-05-10T00:40:14.855Z,18.50
2023-05-10T00:42:42.183Z,18.60
2023-05-10T00:45:09.592Z,18.60
2023-05-10T00:47:36.870Z,18.60
2023-05-10T00:50:05.540Z,19.00
2023-05-10T00:52:32.797Z,18.70
2023-05-10T00:55:00.735Z,18.60
2023-05-10T00:57:28.128Z,18.70
2023-05-10T00:59:55.176Z,18.70
2023-05-10T01:02:22.296Z,18.70
2023-05-10T01:04:50.415Z,18.50
2023-05-10T01:07:17.868Z,18.60
2023-05-10T01:09:45.163Z,18.60
2023-05-10T01:12:12.841Z,18.60
2023-05-10T01:14:40.502Z,18.60
2023-05-10T01:17:10.243Z,18.50
2023-05-10T01:19:38.914Z,18.50
2023-05-10T01:22:22.692Z,18.50
2023-05-10T01:24:58.697Z,18.50
2023-05-10T01:28:21.017Z,18.60
2023-05-10T01:31:01.238Z,18.70
2023-05-10T01:33:49.436Z,18.70
2023-05-10T01:36:27.103Z,18.70
2023-05-10T01:38:58.794Z,18.70
2023-05-10T01:41:36.861Z,18.70
2023-05-10T01:44:32.180Z,18.70
2023-05-10T01:47:07.312Z,18.70
2023-05-10T01:49:41.553Z,18.70
2023-05-10T01:52:12.844Z,18.60
2023-05-10T01:54:44.723Z,18.70
2023-05-10T01:57:14.993Z,18.70
2023-05-10T01:59:46.284Z,18.70
2023-05-10T02:02:15.629Z,18.70
2023-05-10T02:04:44.075Z,18.70
2023-05-10T02:07:12.666Z,18.30
2023-05-10T02:09:40.911Z,18.70
2023-05-10T02:12:09.263Z,18.70
2023-05-10T02:14:38.075Z,18.60
2023-05-10T02:17:08.610Z,18.60
2023-05-10T02:19:38.471Z,18.60
2023-05-10T02:22:07.001Z,18.50
2023-05-10T02:24:35.617Z,18.50
2023-05-10T02:27:04.625Z,18.50
2023-05-10T02:29:33.214Z,18.50
2023-05-10T02:32:01.471Z,18.50
2023-05-10T02:34:29.537Z,18.50
2023-05-10T02:36:57.602Z,18.50
2023-05-10T02:39:27.470Z,18.50
2023-05-10T02:41:56.066Z,18.40
2023-05-10T02:44:24.633Z,18.50
2023-05-10T02:46:51.974Z,18.60
2023-05-10T02:49:19.960Z,18.60
2023-05-10T02:51:57.567Z,19.00
2023-05-10T02:54:30.451Z,18.70
2023-05-10T02:57:04.761Z,18.70
2023-05-10T02:59:33.453Z,18.60
2023-05-10T03:02:01.466Z,18.60
2023-05-10T03:04:28.558Z,18.60
2023-05-10T03:06:56.175Z,18.60
2023-05-10T03:09:23.259Z,18.70
2023-05-10T03:12:10.215Z,18.60
2023-05-10T03:14:40.030Z,18.60
2023-05-10T03:17:17.010Z,18.80
2023-05-10T03:19:53.928Z,18.70
2023-05-10T03:22:37.906Z,18.60
2023-05-10T03:25:09.905Z,18.70
2023-05-10T03:27:40.024Z,18.50
2023-05-10T03:30:09.985Z,18.60
2023-05-10T03:32:37.208Z,18.60
2023-05-10T03:35:12.326Z,18.60
2023-05-10T03:37:39.615Z,18.60
2023-05-10T03:40:08.536Z,18.50
2023-05-10T03:42:35.712Z,18.60
2023-05-10T03:45:03.233Z,18.70
2023-05-10T03:47:30.752Z,18.70
2023-05-10T03:49:57.956Z,18.70
2023-05-10T03:52:25.023Z,18.60
2023-05-10T03:54:52.138Z,18.60
2023-05-10T03:57:19.184Z,18.60
2023-05-10T03:59:46.330Z,18.10
2023-05-10T04:02:13.429Z,18.90
2023-05-10T04:04:40.615Z,18.50
2023-05-10T04:07:07.700Z,18.50
2023-05-10T04:09:34.827Z,18.50
2023-05-10T04:12:03.285Z,18.50
2023-05-10T04:14:30.419Z,18.50
2023-05-10T04:16:57.547Z,18.50
2023-05-10T04:19:24.760Z,18.50
2023-05-10T04:21:51.806Z,18.50
2023-05-10T04:24:18.890Z,18.50
2023-05-10T04:26:46.402Z,18.60
2023-05-10T04:29:13.499Z,18.70
2023-05-10T04:31:40.664Z,18.70
2023-05-10T04:34:07.736Z,18.70
2023-05-10T04:36:36.600Z,18.70
2023-05-10T04:39:04.696Z,18.80
2023-05-10T04:41:31.904Z,18.70
2023-05-10T04:43:59.007Z,18.70
2023-05-10T04:46:26.098Z,18.70
2023-05-10T04:48:53.168Z,18.80
2023-05-10T04:51:21.401Z,18.70
2023-05-10T04:54:01.411Z,18.80
2023-05-10T04:56:32.171Z,18.90
2023-05-10T04:58:59.433Z,18.70
2023-05-10T05:01:26.613Z,18.60
2023-05-10T05:03:53.990Z,18.60
2023-05-10T05:06:25.731Z,19.20
2023-05-10T05:08:52.800Z,18.60
2023-05-10T05:11:20.310Z,18.60
2023-05-10T05:13:47.408Z,18.60
2023-05-10T05:16:14.479Z,18.70
2023-05-10T05:18:41.572Z,18.60
2023-05-10T05:21:16.981Z,18.60
2023-05-10T05:23:44.278Z,18.60
2023-05-10T05:26:11.652Z,18.60
2023-05-10T05:28:39.007Z,18.60
2023-05-10T05:31:06.683Z,18.60
2023-05-10T05:33:34.434Z,18.60
2023-05-10T05:36:02.838Z,18.60
2023-05-10T05:38:29.950Z,18.60
2023-05-10T05:40:57.676Z,18.60
2023-05-10T05:43:24.760Z,18.60
2023-05-10T05:45:54.476Z,18.60
2023-05-10T05:48:22.533Z,18.60
2023-05-10T05:50:49.582Z,18.50
2023-05-10T05:53:16.764Z,18.70
2023-05-10T05:55:58.084Z,18.50
2023-05-10T05:58:25.973Z,18.60
2023-05-10T06:00:53.526Z,18.60
2023-05-10T06:03:21.224Z,18.60
2023-05-10T06:05:48.563Z,18.60
2023-05-10T06:08:15.872Z,18.60
2023-05-10T06:10:42.974Z,18.60
2023-05-10T06:13:10.106Z,18.60
2023-05-10T06:15:37.277Z,18.60
2023-05-10T06:18:04.523Z,18.60
2023-05-10T06:20:32.464Z,18.60
2023-05-10T06:22:59.867Z,18.50
2023-05-10T06:25:26.991Z,18.60
2023-05-10T06:27:58.103Z,18.40
2023-05-10T06:30:29.327Z,18.60
2023-05-10T06:32:57.087Z,18.60
2023-05-10T06:35:24.259Z,18.80
2023-05-10T06:37:52.101Z,18.70
2023-05-10T06:40:19.471Z,18.60
2023-05-10T06:42:50.053Z,18.60
2023-05-10T06:45:17.510Z,18.60
2023-05-10T06:47:44.878Z,18.70
2023-05-10T06:50:15.250Z,18.70
2023-05-10T06:52:42.439Z,18.70
2023-05-10T06:55:09.998Z,18.70
2023-05-10T06:57:37.143Z,18.70
2023-05-10T07:00:08.175Z,19.40
2023-05-10T07:02:35.363Z,18.70
2023-05-10T07:05:03.615Z,18.70
2023-05-10T07:07:30.933Z,18.60
2023-05-10T07:09:58.629Z,18.80
2023-05-10T07:12:26.115Z,18.60
2023-05-10T07:14:53.347Z,18.60
2023-05-10T07:17:20.785Z,18.60
2023-05-10T07:19:47.860Z,18.60
2023-05-10T07:22:15.949Z,18.60
2023-05-10T07:24:43.194Z,18.70
2023-05-10T07:27:13.883Z,18.50
2023-05-10T07:29:40.960Z,18.50
2023-05-10T07:32:08.095Z,18.20
2023-05-10T07:34:35.265Z,18.60
2023-05-10T07:37:02.643Z,18.60
2023-05-10T07:39:29.743Z,18.60
2023-05-10T07:41:56.907Z,18.60
2023-05-10T07:44:24.214Z,18.60
2023-05-10T07:46:51.535Z,18.70
2023-05-10T07:49:18.660Z,18.70
2023-05-10T07:51:45.806Z,18.60
2023-05-10T07:54:13.650Z,18.60
2023-05-10T07:56:45.586Z,18.60
2023-05-10T07:59:16.398Z,18.60
2023-05-10T08:01:44.109Z,18.70
2023-05-10T08:04:11.391Z,18.70
2023-05-10T08:06:38.559Z,18.70
2023-05-10T08:09:05.741Z,18.80
2023-05-10T08:11:34.858Z,18.70
2023-05-10T08:14:02.194Z,18.60
2023-05-10T08:16:29.883Z,18.70
2023-05-10T08:18:57.215Z,18.70
2023-05-10T08:21:24.341Z,18.70
2023-05-10T08:23:51.478Z,18.60
2023-05-10T08:26:18.550Z,18.60
2023-05-10T08:28:45.693Z,18.60
2023-05-10T08:31:13.245Z,18.60
2023-05-10T08:33:42.194Z,18.60
2023-05-10T08:36:10.144Z,18.60
2023-05-10T08:38:38.831Z,18.60
2023-05-10T08:41:06.880Z,18.50
2023-05-10T08:43:36.680Z,18.50
2023-05-10T08:46:06.132Z,18.60
2023-05-10T08:48:35.692Z,18.60
2023-05-10T08:51:04.504Z,18.50
2023-05-10T08:53:36.271Z,18.40
2023-05-10T08:56:04.282Z,18.30
2023-05-10T08:58:31.766Z,18.40
2023-05-10T09:01:00.134Z,18.40
2023-05-10T09:03:27.445Z,18.50
2023-05-10T09:05:56.673Z,18.40
2023-05-10T09:08:27.454Z,18.50
2023-05-10T09:10:55.818Z,18.60
2023-05-10T09:13:24.519Z,18.60
2023-05-10T09:15:52.291Z,18.70
2023-05-10T09:18:19.598Z,18.60
2023-05-10T09:20:46.798Z,18.60
2023-05-10T09:23:13.877Z,18.30
2023-05-10T09:25:42.638Z,18.10
2023-05-10T09:28:10.586Z,19.30
2023-05-10T09:30:38.255Z,18.00
2023-05-10T09:33:05.665Z,17.80
2023-05-10T09:35:34.324Z,17.80
2023-05-10T09:38:05.854Z,17.90
2023-05-10T09:40:33.422Z,18.00
2023-05-10T09:43:06.981Z,18.20
2023-05-10T09:45:38.682Z,18.10
2023-05-10T09:48:06.878Z,18.20
2023-05-10T09:50:35.026Z,18.20
2023-05-10T09:53:04.303Z,18.20
2023-05-10T09:55:40.953Z,18.20
2023-05-10T09:58:11.490Z,18.20
2023-05-10T10:00:41.125Z,18.20
2023-05-10T10:03:16.922Z,17.90
2023-05-10T10:05:44.884Z,18.30
2023-05-10T10:08:13.277Z,18.30
2023-05-10T10:10:41.516Z,18.30
2023-05-10T10:13:09.085Z,18.10
2023-05-10T10:15:36.502Z,18.30
2023-05-10T10:18:07.229Z,18.30
2023-05-10T10:20:34.865Z,18.30
2023-05-10T10:23:01.936Z,18.30
2023-05-10T10:25:29.248Z,18.30
2023-05-10T10:28:22.663Z,18.30
2023-05-10T10:30:52.099Z,18.30
2023-05-10T10:33:52.303Z,18.20
2023-05-10T10:36:21.178Z,18.20
2023-05-10T10:38:48.186Z,18.20
2023-05-10T10:41:34.882Z,18.30
2023-05-10T10:44:27.193Z,18.70
2023-05-10T10:47:07.012Z,18.20
2023-05-10T10:49:41.582Z,18.30
2023-05-10T10:52:33.749Z,18.20
2023-05-10T10:55:02.523Z,18.20
2023-05-10T10:57:32.538Z,18.20
2023-05-10T11:00:32.880Z,18.30
2023-05-10T11:03:11.565Z,18.20
2023-05-10T11:05:45.742Z,18.20
2023-05-10T11:08:18.645Z,18.20
2023-05-10T11:10:53.904Z,18.20
2023-05-10T11:13:39.464Z,18.30
2023-05-10T11:16:14.091Z,18.20
2023-05-10T11:18:41.578Z,18.10
2023-05-10T11:21:11.442Z,18.10
2023-05-10T11:23:44.376Z,17.70
2023-05-10T11:26:12.442Z,18.10
2023-05-10T11:28:43.693Z,17.70
2023-05-10T11:31:11.228Z,18.60
2023-05-10T11:33:45.853Z,18.10
2023-05-10T11:36:18.726Z,18.20
2023-05-10T11:38:46.971Z,18.20
2023-05-10T11:41:14.720Z,18.30
2023-05-10T11:43:42.623Z,18.20
2023-05-10T11:46:12.602Z,18.20
2023-05-10T11:48:40.851Z,18.20
2023-05-10T11:51:11.988Z,17.70
2023-05-10T11:53:39.170Z,18.20
2023-05-10T11:56:07.890Z,18.20
2023-05-10T11:58:35.841Z,18.20
2023-05-10T12:01:04.369Z,18.20
2023-05-10T12:03:32.149Z,18.20
2023-05-10T12:06:00.170Z,18.20
2023-05-10T12:08:28.921Z,17.70
2023-05-10T12:11:09.227Z,18.40
2023-05-10T12:13:47.487Z,18.20
2023-05-10T12:16:19.829Z,18.20
2023-05-10T12:18:50.046Z,18.20
2023-05-10T12:21:17.442Z,18.20
2023-05-10T12:23:47.747Z,18.30
2023-05-10T12:26:15.565Z,18.30
2023-05-10T12:28:42.832Z,17.90
2023-05-10T12:31:10.069Z,18.20
2023-05-10T12:33:47.211Z,18.20
2023-05-10T12:36:16.083Z,18.20
2023-05-10T12:38:50.856Z,18.20
2023-05-10T12:41:19.012Z,18.20
2023-05-10T12:43:47.256Z,17.80
2023-05-10T12:46:17.966Z,18.20
2023-05-10T12:48:48.304Z,17.70
2023-05-10T12:51:18.072Z,18.30
2023-05-10T12:53:48.654Z,18.60
2023-05-10T12:56:16.668Z,17.80
2023-05-10T12:58:48.791Z,18.10
2023-05-10T13:01:16.179Z,18.00
2023-05-10T13:03:44.192Z,18.10
2023-05-10T13:06:14.415Z,18.10
2023-05-10T13:08:41.479Z,18.10
2023-05-10T13:11:08.579Z,18.10
2023-05-10T13:13:35.638Z,18.10
2023-05-10T13:16:02.779Z,18.20
2023-05-10T13:18:29.948Z,18.20
2023-05-10T13:20:57.059Z,18.20
2023-05-10T13:23:24.140Z,18.10
2023-05-10T13:25:51.225Z,18.10
2023-05-10T13:28:18.267Z,18.20
2023-05-10T13:30:45.494Z,18.10
2023-05-10T13:33:12.607Z,18.10
2023-05-10T13:35:39.688Z,18.20
2023-05-10T13:38:08.729Z,18.20
2023-05-10T13:40:36.843Z,18.10
2023-05-10T13:43:03.990Z,18.10
2023-05-10T13:45:31.071Z,18.40
2023-05-10T13:47:58.209Z,18.20
2023-05-10T13:50:25.393Z,18.10
2023-05-10T13:52:52.463Z,18.20
2023-05-10T13:55:19.935Z,18.80
2023-05-10T13:57:47.268Z,18.20
2023-05-10T14:00:14.662Z,18.20
2023-05-10T14:02:41.900Z,18.20
2023-05-10T14:05:09.279Z,18.20
2023-05-10T14:07:36.482Z,18.20
2023-05-10T14:10:03.799Z,18.20
2023-05-10T14:12:31.120Z,18.10
2023-05-10T14:14:59.069Z,18.00
2023-05-10T14:17:26.175Z,18.10
2023-05-10T14:19:54.172Z,18.20
2023-05-10T14:22:21.449Z,18.30
2023-05-10T14:24:48.564Z,18.70
2023-05-10T14:27:16.130Z,18.50
2023-05-10T14:29:43.228Z,18.50
2023-05-10T14:32:10.673Z,18.50
2023-05-10T14:34:37.996Z,18.60
2023-05-10T14:37:05.401Z,18.60
2023-05-10T14:39:32.614Z,18.70
2023-05-10T14:41:59.973Z,18.60
2023-05-10T14:44:27.126Z,18.60
2023-05-10T14:46:54.218Z,18.70
2023-05-10T14:49:23.594Z,18.70
2023-05-10T14:51:50.982Z,18.70
2023-05-10T14:54:18.175Z,18.60
2023-05-10T14:56:45.928Z,18.60
2023-05-10T14:59:12.983Z,18.60
2023-05-10T15:01:42.762Z,18.60
2023-05-10T15:04:10.500Z,18.60
2023-05-10T15:06:37.934Z,18.70
2023-05-10T15:09:05.149Z,18.70
2023-05-10T15:11:32.327Z,18.60
2023-05-10T15:13:59.643Z,18.60
2023-05-10T15:16:26.794Z,18.60
2023-05-10T15:18:54.034Z,18.00
2023-05-10T15:21:21.174Z,18.60
2023-05-10T15:23:48.992Z,18.60
2023-05-10T15:26:16.087Z,18.60
2023-05-10T15:28:43.824Z,18.60
2023-05-10T15:31:11.428Z,18.60
2023-05-10T15:33:39.376Z,18.60
2023-05-10T15:36:07.642Z,18.60
2023-05-10T15:38:34.750Z,18.50
2023-05-10T15:41:02.030Z,18.60
2023-05-10T15:43:29.223Z,18.50
2023-05-10T15:45:56.404Z,18.50
2023-05-10T15:48:23.617Z,19.00
2023-05-10T15:50:50.891Z,18.70
2023-05-10T15:53:17.954Z,18.50
2023-05-10T15:55:45.025Z,18.50
2023-05-10T15:58:12.097Z,18.50
2023-05-10T16:00:39.220Z,18.50
2023-05-10T16:03:06.841Z,18.70
2023-05-10T16:05:34.098Z,18.50
2023-05-10T16:08:01.688Z,18.50
2023-05-10T16:10:33.010Z,18.50
2023-05-10T16:13:00.529Z,18.50
2023-05-10T16:15:27.753Z,18.50
2023-05-10T16:17:55.233Z,18.60
2023-05-10T16:20:22.366Z,18.50
2023-05-10T16:22:49.533Z,18.50
2023-05-10T16:25:16.843Z,18.60
2023-05-10T16:27:44.435Z,18.50
2023-05-10T16:30:11.817Z,18.50
2023-05-10T16:32:38.932Z,18.50
2023-05-10T16:35:06.946Z,18.50
2023-05-10T16:37:34.007Z,18.50
2023-05-10T16:40:01.155Z,18.50
2023-05-10T16:42:28.473Z,18.50
2023-05-10T16:44:55.560Z,18.50
2023-05-10T16:47:23.214Z,18.50
2023-05-10T16:49:50.344Z,18.40
2023-05-10T16:52:17.432Z,18.50
2023-05-10T16:54:44.914Z,18.40
2023-05-10T16:57:11.972Z,18.40
2023-05-10T16:59:39.119Z,18.40
2023-05-10T17:02:06.624Z,18.40
2023-05-10T17:04:33.784Z,18.50
2023-05-10T17:07:00.867Z,18.50
2023-05-10T17:09:27.930Z,18.40
2023-05-10T17:11:54.999Z,18.40
2023-05-10T17:14:22.202Z,18.50
2023-05-10T17:16:52.626Z,18.40
2023-05-10T17:19:19.918Z,18.70
2023-05-10T17:21:47.314Z,18.50
2023-05-10T17:24:14.888Z,18.30
2023-05-10T17:26:42.105Z,18.50
2023-05-10T17:29:09.302Z,18.50
2023-05-10T17:31:36.606Z,18.50
2023-05-10T17:34:05.491Z,18.50
2023-05-10T17:36:33.407Z,18.40
2023-05-10T17:39:00.954Z,18.80
2023-05-10T17:41:28.666Z,18.50
2023-05-10T17:43:55.772Z,18.50
2023-05-10T17:46:23.107Z,18.50
2023-05-10T17:48:50.620Z,18.80
2023-05-10T17:51:18.553Z,18.50
2023-05-10T17:53:45.781Z,18.40
2023-05-10T17:56:12.851Z,18.50
2023-05-10T17:58:39.964Z,18.50
2023-05-10T18:01:07.050Z,18.50
2023-05-10T18:03:35.791Z,18.50
2023-05-10T18:06:04.255Z,18.50
2023-05-10T18:08:31.679Z,18.50
2023-05-10T18:10:59.060Z,18.50
2023-05-10T18:13:26.173Z,18.40
2023-05-10T18:15:53.272Z,18.50
2023-05-10T18:18:20.409Z,18.70
2023-05-10T18:20:47.542Z,18.50
2023-05-10T18:23:15.335Z,18.50
2023-05-10T18:25:42.457Z,18.50
2023-05-10T18:28:09.787Z,18.70
2023-05-10T18:30:37.776Z,18.50
2023-05-10T18:33:04.934Z,18.50
2023-05-10T18:35:32.075Z,18.90
2023-05-10T18:37:59.246Z,18.50
2023-05-10T18:40:27.129Z,18.50
2023-05-10T18:42:54.234Z,18.50
2023-05-10T18:45:21.418Z,17.90
2023-05-10T18:47:48.585Z,18.50
2023-05-10T18:50:17.149Z,18.50
2023-05-10T18:52:44.248Z,18.50
2023-05-10T18:55:11.786Z,18.50
2023-05-10T18:57:41.375Z,18.50
2023-05-10T19:00:12.066Z,18.50
2023-05-10T19:02:42.101Z,18.50
2023-05-10T19:05:09.552Z,18.50
2023-05-10T19:07:36.697Z,18.50
2023-05-10T19:10:03.955Z,18.50
2023-05-10T19:12:31.010Z,18.50
2023-05-10T19:14:58.048Z,18.50
2023-05-10T19:17:26.061Z,18.50
2023-05-10T19:19:53.964Z,18.50
2023-05-10T19:22:31.982Z,18.50
2023-05-10T19:25:10.065Z,19.00
2023-05-10T19:27:37.597Z,18.50
2023-05-10T19:30:05.591Z,18.50
2023-05-10T19:32:32.746Z,18.40
2023-05-10T19:34:59.863Z,18.50
2023-05-10T19:37:27.329Z,18.40
2023-05-10T19:39:54.439Z,18.40
2023-05-10T19:42:21.644Z,18.50
2023-05-10T19:44:48.759Z,18.50
2023-05-10T19:47:16.032Z,18.50
2023-05-10T19:49:43.169Z,18.50
2023-05-10T19:52:11.952Z,18.40
2023-05-10T19:54:39.032Z,18.30
2023-05-10T19:57:06.304Z,18.50
2023-05-10T19:59:33.392Z,18.50
2023-05-10T20:02:00.559Z,18.40
2023-05-10T20:04:28.722Z,18.50
2023-05-10T20:06:56.068Z,18.40
2023-05-10T20:09:23.098Z,18.50
2023-05-10T20:11:50.203Z,18.40
2023-05-10T20:14:18.310Z,18.40
2023-05-10T20:16:45.513Z,18.40
2023-05-10T20:19:12.821Z,18.40
2023-05-10T20:21:39.937Z,18.40
2023-05-10T20:24:07.686Z,18.70
2023-05-10T20:26:34.797Z,18.40
2023-05-10T20:29:02.028Z,18.40
2023-05-10T20:31:29.147Z,18.60
2023-05-10T20:33:56.325Z,18.50
2023-05-10T20:36:23.493Z,18.50
2023-05-10T20:38:50.550Z,18.50
2023-05-10T20:41:17.598Z,18.50
2023-05-10T20:43:44.691Z,18.50
2023-05-10T20:46:12.296Z,18.40
2023-05-10T20:48:39.374Z,18.40
2023-05-10T20:51:06.892Z,18.50
2023-05-10T20:53:34.019Z,18.50
2023-05-10T20:56:01.121Z,18.50
2023-05-10T20:58:28.187Z,18.90
2023-05-10T21:00:55.424Z,18.50
2023-05-10T21:03:22.535Z,18.40
2023-05-10T21:05:49.621Z,18.40
2023-05-10T21:08:16.663Z,18.40
2023-05-10T21:10:43.817Z,18.40
2023-05-10T21:13:10.941Z,18.40
2023-05-10T21:15:38.049Z,18.40
2023-05-10T21:18:05.646Z,18.30
2023-05-10T21:20:32.723Z,18.40
2023-05-10T21:22:59.766Z,18.40
2023-05-10T21:25:26.959Z,18.20
2023-05-10T21:27:54.150Z,18.40
2023-05-10T21:30:21.322Z,18.60
2023-05-10T21:32:48.493Z,18.40
2023-05-10T21:35:16.221Z,18.40
2023-05-10T21:37:43.298Z,18.40
2023-05-10T21:40:11.194Z,18.40
2023-05-10T21:42:38.292Z,18.40
2023-05-10T21:45:05.766Z,18.30
2023-05-10T21:47:32.878Z,18.30
2023-05-10T21:50:00.102Z,18.30
2023-05-10T21:52:27.402Z,18.30
2023-05-10T21:54:54.455Z,18.30
2023-05-10T21:57:21.593Z,18.30
2023-05-10T21:59:48.695Z,18.20
2023-05-10T22:02:16.190Z,18.30
2023-05-10T22:04:43.296Z,18.30
2023-05-10T22:07:10.561Z,18.30
2023-05-10T22:09:37.618Z,18.40
2023-05-10T22:12:04.914Z,18.40
2023-05-10T22:14:31.965Z,18.40
2023-05-10T22:16:59.096Z,18.40
2023-05-10T22:19:26.385Z,18.40
2023-05-10T22:21:53.923Z,18.40
2023-05-10T22:24:21.397Z,18.40
2023-05-10T22:26:48.481Z,18.40
2023-05-10T22:29:16.048Z,18.40
2023-05-10T22:31:43.100Z,18.40
2023-05-10T22:34:10.359Z,18.40
2023-05-10T22:36:37.636Z,18.40
2023-05-10T22:39:04.709Z,18.40
2023-05-10T22:41:33.273Z,18.40
2023-05-10T22:44:01.396Z,18.40
2023-05-10T22:46:29.533Z,18.40
2023-05-10T22:48:56.918Z,18.00
2023-05-10T22:51:23.986Z,18.40
2023-05-10T22:53:52.868Z,18.40
2023-05-10T22:56:21.858Z,18.80
2023-05-10T22:58:49.396Z,18.40
2023-05-10T23:01:16.906Z,18.40
2023-05-10T23:03:44.156Z,18.40
2023-05-10T23:06:11.285Z,18.40
2023-05-10T23:08:38.335Z,18.40
2023-05-10T23:11:05.419Z,18.50
2023-05-10T23:13:32.575Z,18.50
2023-05-10T23:16:05.895Z,18.50
2023-05-10T23:18:33.504Z,18.40
2023-05-10T23:21:00.614Z,18.40
2023-05-10T23:23:27.814Z,18.40
2023-05-10T23:25:54.991Z,18.50
2023-05-10T23:28:22.150Z,18.30
2023-05-10T23:30:57.585Z,18.20
2023-05-10T23:33:26.081Z,18.30
2023-05-10T23:35:54.761Z,18.30
2023-05-10T23:38:21.960Z,18.20
2023-05-10T23:40:50.346Z,18.20
2023-05-10T23:43:19.626Z,18.20
2023-05-10T23:45:54.063Z,18.20
2023-05-10T23:48:21.356Z,18.30
2023-05-10T23:50:48.797Z,18.30
2023-05-10T23:53:16.608Z,18.90
2023-05-10T23:55:43.931Z,18.30
2023-05-10T23:58:11.567Z,18.30
